sensor_id;sensor_type;location;lat;lon;timestamp;temperature;humidity
59973;DHT22;55298;-36.624;-64.282;2023-05-15T00:01:23;21.10;51.30
59973;DHT22;55298;-36.624;-64.282;2023-05-15T00:03:51;21.10;51.50
59973;DHT22;55298;-36.624;-64.282;2023-05-15T00:06:20;21.00;51.60
59973;DHT22;55298;-36.624;-64.282;2023-05-15T00:08:48;21.00;51.40
59973;DHT22;55298;-36.624;-64.282;2023-05-15T00:11:16;21.00;51.30
59973;DHT22;55298;-36.624;-64.282;2023-05-15T00:13:44;20.90;51.20
59973;DHT22;55298;-36.624;-64.282;2023-05-15T00:16:11;20.90;51.80
59973;DHT22;55298;-36.624;-64.282;2023-05-15T00:18:39;20.90;51.40
59973;DHT22;55298;-36.624;-64.282;2023-05-15T00:21:07;20.90;51.30
59973;DHT22;55298;-36.624;-64.282;2023-05-15T00:23:35;20.90;51.30
59973;DHT22;55298;-36.624;-64.282;2023-05-15T00:26:02;20.90;51.30
59973;DHT22;55298;-36.624;-64.282;2023-05-15T00:28:30;20.80;51.00
59973;DHT22;55298;-36.624;-64.282;2023-05-15T00:30:59;20.80;50.90
59973;DHT22;55298;-36.624;-64.282;2023-05-15T00:33:27;20.80;51.00
59973;DHT22;55298;-36.624;-64.282;2023-05-15T00:35:55;20.80;51.00
59973;DHT22;55298;-36.624;-64.282;2023-05-15T00:38:22;20.70;51.00
59973;DHT22;55298;-36.624;-64.282;2023-05-15T00:40:51;20.60;51.20
59973;DHT22;55298;-36.624;-64.282;2023-05-15T00:43:19;20.60;51.50
59973;DHT22;55298;-36.624;-64.282;2023-05-15T00:45:48;20.60;51.70
59973;DHT22;55298;-36.624;-64.282;2023-05-15T00:48:17;20.50;52.10
59973;DHT22;55298;-36.624;-64.282;2023-05-15T00:50:50;20.50;52.50
59973;DHT22;55298;-36.624;-64.282;2023-05-15T00:53:18;20.90;53.10
59973;DHT22;55298;-36.624;-64.282;2023-05-15T00:55:46;20.50;53.10
59973;DHT22;55298;-36.624;-64.282;2023-05-15T00:58:23;20.40;53.30
59973;DHT22;55298;-36.624;-64.282;2023-05-15T01:00:51;20.40;54.00
59973;DHT22;55298;-36.624;-64.282;2023-05-15T01:03:22;20.40;53.50
59973;DHT22;55298;-36.624;-64.282;2023-05-15T01:05:50;20.40;53.70
59973;DHT22;55298;-36.624;-64.282;2023-05-15T01:10:58;20.40;53.60
59973;DHT22;55298;-36.624;-64.282;2023-05-15T01:13:26;20.30;53.50
59973;DHT22;55298;-36.624;-64.282;2023-05-15T01:15:54;20.30;53.60
59973;DHT22;55298;-36.624;-64.282;2023-05-15T01:18:22;20.20;53.80
59973;DHT22;55298;-36.624;-64.282;2023-05-15T01:21:14;20.20;54.00
59973;DHT22;55298;-36.624;-64.282;2023-05-15T01:29:43;20.20;53.90
59973;DHT22;55298;-36.624;-64.282;2023-05-15T01:32:18;20.30;53.50
59973;DHT22;55298;-36.624;-64.282;2023-05-15T01:37:47;20.20;53.00
59973;DHT22;55298;-36.624;-64.282;2023-05-15T01:40:17;20.20;53.00
59973;DHT22;55298;-36.624;-64.282;2023-05-15T01:42:53;20.10;52.90
59973;DHT22;55298;-36.624;-64.282;2023-05-15T01:45:24;20.10;52.80
59973;DHT22;55298;-36.624;-64.282;2023-05-15T01:47:53;20.00;52.80
59973;DHT22;55298;-36.624;-64.282;2023-05-15T01:50:25;20.00;53.00
59973;DHT22;55298;-36.624;-64.282;2023-05-15T01:52:58;20.40;53.20
59973;DHT22;55298;-36.624;-64.282;2023-05-15T01:58:17;19.80;53.10
59973;DHT22;55298;-36.624;-64.282;2023-05-15T02:00:46;19.70;53.40
59973;DHT22;55298;-36.624;-64.282;2023-05-15T02:03:15;19.60;53.90
59973;DHT22;55298;-36.624;-64.282;2023-05-15T02:05:44;19.60;54.40
59973;DHT22;55298;-36.624;-64.282;2023-05-15T02:08:13;19.50;54.80
59973;DHT22;55298;-36.624;-64.282;2023-05-15T02:10:42;19.40;55.20
59973;DHT22;55298;-36.624;-64.282;2023-05-15T02:13:12;19.40;55.70
59973;DHT22;55298;-36.624;-64.282;2023-05-15T02:15:40;19.40;56.10
59973;DHT22;55298;-36.624;-64.282;2023-05-15T02:18:07;19.40;56.20
59973;DHT22;55298;-36.624;-64.282;2023-05-15T02:20:35;19.30;56.10
59973;DHT22;55298;-36.624;-64.282;2023-05-15T02:23:03;19.30;55.70
59973;DHT22;55298;-36.624;-64.282;2023-05-15T02:28:32;19.20;56.90
59973;DHT22;55298;-36.624;-64.282;2023-05-15T02:31:13;19.10;57.20
59973;DHT22;55298;-36.624;-64.282;2023-05-15T02:33:58;19.00;57.10
59973;DHT22;55298;-36.624;-64.282;2023-05-15T02:36:31;19.00;57.60
59973;DHT22;55298;-36.624;-64.282;2023-05-15T02:39:00;18.90;57.60
59973;DHT22;55298;-36.624;-64.282;2023-05-15T02:41:31;18.90;57.60
59973;DHT22;55298;-36.624;-64.282;2023-05-15T02:44:00;18.80;59.20
59973;DHT22;55298;-36.624;-64.282;2023-05-15T02:46:28;18.70;59.00
59973;DHT22;55298;-36.624;-64.282;2023-05-15T02:48:56;18.70;59.00
59973;DHT22;55298;-36.624;-64.282;2023-05-15T02:51:25;18.60;59.20
59973;DHT22;55298;-36.624;-64.282;2023-05-15T02:53:54;18.60;59.90
59973;DHT22;55298;-36.624;-64.282;2023-05-15T02:56:22;18.50;60.60
59973;DHT22;55298;-36.624;-64.282;2023-05-15T02:58:49;18.50;60.80
59973;DHT22;55298;-36.624;-64.282;2023-05-15T03:01:17;18.50;61.50
59973;DHT22;55298;-36.624;-64.282;2023-05-15T03:03:45;18.40;61.50
59973;DHT22;55298;-36.624;-64.282;2023-05-15T03:06:12;18.40;61.60
59973;DHT22;55298;-36.624;-64.282;2023-05-15T03:08:40;18.30;61.70
59973;DHT22;55298;-36.624;-64.282;2023-05-15T03:11:08;18.30;62.50
59973;DHT22;55298;-36.624;-64.282;2023-05-15T03:13:36;18.30;62.10
59973;DHT22;55298;-36.624;-64.282;2023-05-15T03:16:04;18.30;62.20
59973;DHT22;55298;-36.624;-64.282;2023-05-15T03:18:32;18.20;63.10
59973;DHT22;55298;-36.624;-64.282;2023-05-15T03:20:59;18.30;62.30
59973;DHT22;55298;-36.624;-64.282;2023-05-15T03:23:27;18.20;63.60
59973;DHT22;55298;-36.624;-64.282;2023-05-15T03:25:58;18.20;64.70
59973;DHT22;55298;-36.624;-64.282;2023-05-15T03:28:25;18.10;64.40
59973;DHT22;55298;-36.624;-64.282;2023-05-15T03:30:53;18.00;65.60
59973;DHT22;55298;-36.624;-64.282;2023-05-15T03:33:21;18.00;65.40
59973;DHT22;55298;-36.624;-64.282;2023-05-15T03:35:49;18.00;65.10
59973;DHT22;55298;-36.624;-64.282;2023-05-15T03:38:18;18.00;65.60
59973;DHT22;55298;-36.624;-64.282;2023-05-15T03:40:46;17.90;65.50
59973;DHT22;55298;-36.624;-64.282;2023-05-15T03:43:14;17.80;65.10
59973;DHT22;55298;-36.624;-64.282;2023-05-15T03:45:42;17.80;66.00
59973;DHT22;55298;-36.624;-64.282;2023-05-15T03:48:11;17.80;66.40
59973;DHT22;55298;-36.624;-64.282;2023-05-15T03:50:39;17.70;66.80
59973;DHT22;55298;-36.624;-64.282;2023-05-15T03:53:07;17.70;67.50
59973;DHT22;55298;-36.624;-64.282;2023-05-15T03:55:35;17.70;67.40
59973;DHT22;55298;-36.624;-64.282;2023-05-15T03:58:03;17.70;67.50
59973;DHT22;55298;-36.624;-64.282;2023-05-15T04:00:32;17.70;68.30
59973;DHT22;55298;-36.624;-64.282;2023-05-15T04:03:00;17.60;67.80
59973;DHT22;55298;-36.624;-64.282;2023-05-15T04:05:27;17.60;68.50
59973;DHT22;55298;-36.624;-64.282;2023-05-15T04:07:55;17.60;68.10
59973;DHT22;55298;-36.624;-64.282;2023-05-15T04:10:23;17.50;68.60
59973;DHT22;55298;-36.624;-64.282;2023-05-15T04:12:50;17.50;69.60
59973;DHT22;55298;-36.624;-64.282;2023-05-15T04:15:21;17.50;70.60
59973;DHT22;55298;-36.624;-64.282;2023-05-15T04:17:51;17.50;70.80
59973;DHT22;55298;-36.624;-64.282;2023-05-15T04:20:21;17.50;70.60
59973;DHT22;55298;-36.624;-64.282;2023-05-15T04:22:50;17.50;70.20
59973;DHT22;55298;-36.624;-64.282;2023-05-15T04:25:18;17.40;70.70
59973;DHT22;55298;-36.624;-64.282;2023-05-15T04:27:47;17.40;71.40
59973;DHT22;55298;-36.624;-64.282;2023-05-15T04:30:15;17.40;71.70
59973;DHT22;55298;-36.624;-64.282;2023-05-15T04:32:42;17.40;71.60
59973;DHT22;55298;-36.624;-64.282;2023-05-15T04:35:10;17.40;72.20
59973;DHT22;55298;-36.624;-64.282;2023-05-15T04:37:40;17.30;71.00
59973;DHT22;55298;-36.624;-64.282;2023-05-15T04:40:09;17.30;71.10
59973;DHT22;55298;-36.624;-64.282;2023-05-15T04:42:36;17.30;71.50
59973;DHT22;55298;-36.624;-64.282;2023-05-15T04:45:05;17.30;72.00
59973;DHT22;55298;-36.624;-64.282;2023-05-15T04:47:33;17.20;71.30
59973;DHT22;55298;-36.624;-64.282;2023-05-15T04:50:01;17.20;70.80
59973;DHT22;55298;-36.624;-64.282;2023-05-15T04:52:42;17.10;71.90
59973;DHT22;55298;-36.624;-64.282;2023-05-15T04:55:13;17.10;71.80
59973;DHT22;55298;-36.624;-64.282;2023-05-15T04:57:41;17.00;71.90
59973;DHT22;55298;-36.624;-64.282;2023-05-15T05:00:09;17.00;71.70
59973;DHT22;55298;-36.624;-64.282;2023-05-15T05:02:39;17.00;71.00
59973;DHT22;55298;-36.624;-64.282;2023-05-15T05:05:07;16.90;74.30
59973;DHT22;55298;-36.624;-64.282;2023-05-15T05:07:36;16.80;73.80
59973;DHT22;55298;-36.624;-64.282;2023-05-15T05:10:04;16.80;73.90
59973;DHT22;55298;-36.624;-64.282;2023-05-15T05:12:31;16.70;75.00
59973;DHT22;55298;-36.624;-64.282;2023-05-15T05:14:59;16.70;73.50
59973;DHT22;55298;-36.624;-64.282;2023-05-15T05:17:28;16.70;74.70
59973;DHT22;55298;-36.624;-64.282;2023-05-15T05:19:56;16.70;74.70
59973;DHT22;55298;-36.624;-64.282;2023-05-15T05:22:24;16.70;75.20
59973;DHT22;55298;-36.624;-64.282;2023-05-15T05:24:52;16.60;75.60
59973;DHT22;55298;-36.624;-64.282;2023-05-15T05:27:19;16.60;73.90
59973;DHT22;55298;-36.624;-64.282;2023-05-15T05:29:47;16.60;73.80
59973;DHT22;55298;-36.624;-64.282;2023-05-15T05:32:15;16.60;75.50
59973;DHT22;55298;-36.624;-64.282;2023-05-15T05:34:43;16.60;75.30
59973;DHT22;55298;-36.624;-64.282;2023-05-15T05:37:11;16.70;76.70
59973;DHT22;55298;-36.624;-64.282;2023-05-15T05:39:38;16.70;76.70
59973;DHT22;55298;-36.624;-64.282;2023-05-15T05:42:06;16.70;77.80
59973;DHT22;55298;-36.624;-64.282;2023-05-15T05:44:33;16.70;78.80
59973;DHT22;55298;-36.624;-64.282;2023-05-15T05:47:01;16.70;78.10
59973;DHT22;55298;-36.624;-64.282;2023-05-15T05:49:29;16.70;76.90
59973;DHT22;55298;-36.624;-64.282;2023-05-15T05:52:03;16.70;76.60
59973;DHT22;55298;-36.624;-64.282;2023-05-15T05:54:31;16.70;76.50
59973;DHT22;55298;-36.624;-64.282;2023-05-15T05:56:59;16.70;76.40
59973;DHT22;55298;-36.624;-64.282;2023-05-15T05:59:27;16.70;77.10
59973;DHT22;55298;-36.624;-64.282;2023-05-15T06:01:55;16.70;76.70
59973;DHT22;55298;-36.624;-64.282;2023-05-15T06:04:23;16.70;77.50
59973;DHT22;55298;-36.624;-64.282;2023-05-15T06:06:51;16.60;76.80
59973;DHT22;55298;-36.624;-64.282;2023-05-15T06:09:19;16.50;79.10
59973;DHT22;55298;-36.624;-64.282;2023-05-15T06:11:47;16.50;79.80
59973;DHT22;55298;-36.624;-64.282;2023-05-15T06:14:15;16.50;78.20
59973;DHT22;55298;-36.624;-64.282;2023-05-15T06:16:43;16.40;77.30
59973;DHT22;55298;-36.624;-64.282;2023-05-15T06:19:10;16.40;76.40
59973;DHT22;55298;-36.624;-64.282;2023-05-15T06:21:38;16.30;78.40
59973;DHT22;55298;-36.624;-64.282;2023-05-15T06:24:06;16.30;78.40
59973;DHT22;55298;-36.624;-64.282;2023-05-15T06:26:33;16.20;77.50
59973;DHT22;55298;-36.624;-64.282;2023-05-15T06:29:01;16.20;76.90
59973;DHT22;55298;-36.624;-64.282;2023-05-15T06:31:29;16.20;76.70
59973;DHT22;55298;-36.624;-64.282;2023-05-15T06:33:57;16.10;76.30
59973;DHT22;55298;-36.624;-64.282;2023-05-15T06:36:24;16.00;78.00
59973;DHT22;55298;-36.624;-64.282;2023-05-15T06:38:52;16.00;81.20
59973;DHT22;55298;-36.624;-64.282;2023-05-15T06:41:20;16.00;81.30
59973;DHT22;55298;-36.624;-64.282;2023-05-15T06:43:47;16.00;82.20
59973;DHT22;55298;-36.624;-64.282;2023-05-15T06:46:15;16.00;82.20
59973;DHT22;55298;-36.624;-64.282;2023-05-15T06:48:45;15.90;82.50
59973;DHT22;55298;-36.624;-64.282;2023-05-15T06:51:13;15.90;81.00
59973;DHT22;55298;-36.624;-64.282;2023-05-15T06:53:41;15.80;82.30
59973;DHT22;55298;-36.624;-64.282;2023-05-15T06:56:09;15.80;82.00
59973;DHT22;55298;-36.624;-64.282;2023-05-15T06:58:37;15.70;81.80
59973;DHT22;55298;-36.624;-64.282;2023-05-15T07:01:05;15.60;82.60
59973;DHT22;55298;-36.624;-64.282;2023-05-15T07:03:33;15.60;83.50
59973;DHT22;55298;-36.624;-64.282;2023-05-15T07:06:01;15.50;83.70
59973;DHT22;55298;-36.624;-64.282;2023-05-15T07:08:29;15.40;84.60
59973;DHT22;55298;-36.624;-64.282;2023-05-15T07:10:56;15.30;84.40
59973;DHT22;55298;-36.624;-64.282;2023-05-15T07:13:24;15.30;84.30
59973;DHT22;55298;-36.624;-64.282;2023-05-15T07:15:52;15.20;86.10
59973;DHT22;55298;-36.624;-64.282;2023-05-15T07:18:19;15.10;85.80
59973;DHT22;55298;-36.624;-64.282;2023-05-15T07:20:47;15.00;85.90
59973;DHT22;55298;-36.624;-64.282;2023-05-15T07:23:15;15.00;85.70
59973;DHT22;55298;-36.624;-64.282;2023-05-15T07:25:42;15.00;85.50
59973;DHT22;55298;-36.624;-64.282;2023-05-15T07:28:10;14.90;86.80
59973;DHT22;55298;-36.624;-64.282;2023-05-15T07:30:38;14.90;86.50
59973;DHT22;55298;-36.624;-64.282;2023-05-15T07:33:05;14.90;86.70
59973;DHT22;55298;-36.624;-64.282;2023-05-15T07:35:33;14.80;87.20
59973;DHT22;55298;-36.624;-64.282;2023-05-15T07:38:01;14.80;86.80
59973;DHT22;55298;-36.624;-64.282;2023-05-15T07:40:29;14.80;87.00
59973;DHT22;55298;-36.624;-64.282;2023-05-15T07:42:57;14.80;86.70
59973;DHT22;55298;-36.624;-64.282;2023-05-15T07:45:25;14.70;87.30
59973;DHT22;55298;-36.624;-64.282;2023-05-15T07:47:52;14.70;86.70
59973;DHT22;55298;-36.624;-64.282;2023-05-15T07:50:21;14.60;87.80
59973;DHT22;55298;-36.624;-64.282;2023-05-15T07:52:48;14.60;88.30
59973;DHT22;55298;-36.624;-64.282;2023-05-15T07:55:16;14.40;87.00
59973;DHT22;55298;-36.624;-64.282;2023-05-15T07:57:44;14.40;88.10
59973;DHT22;55298;-36.624;-64.282;2023-05-15T08:00:12;14.40;88.30
59973;DHT22;55298;-36.624;-64.282;2023-05-15T08:02:40;14.40;88.80
59973;DHT22;55298;-36.624;-64.282;2023-05-15T08:05:11;14.40;88.50
59973;DHT22;55298;-36.624;-64.282;2023-05-15T08:07:40;14.40;89.00
59973;DHT22;55298;-36.624;-64.282;2023-05-15T08:10:08;14.30;89.20
59973;DHT22;55298;-36.624;-64.282;2023-05-15T08:12:37;14.30;89.00
59973;DHT22;55298;-36.624;-64.282;2023-05-15T08:15:12;14.20;88.60
59973;DHT22;55298;-36.624;-64.282;2023-05-15T08:17:40;14.20;88.20
59973;DHT22;55298;-36.624;-64.282;2023-05-15T08:20:08;14.20;88.80
59973;DHT22;55298;-36.624;-64.282;2023-05-15T08:22:36;14.20;89.60
59973;DHT22;55298;-36.624;-64.282;2023-05-15T08:25:03;14.20;88.60
59973;DHT22;55298;-36.624;-64.282;2023-05-15T08:27:32;14.20;88.80
59973;DHT22;55298;-36.624;-64.282;2023-05-15T08:30:00;14.20;88.90
59973;DHT22;55298;-36.624;-64.282;2023-05-15T08:32:28;14.20;88.90
59973;DHT22;55298;-36.624;-64.282;2023-05-15T08:34:55;14.10;88.80
59973;DHT22;55298;-36.624;-64.282;2023-05-15T08:37:23;14.10;89.00
59973;DHT22;55298;-36.624;-64.282;2023-05-15T08:39:51;14.10;89.10
59973;DHT22;55298;-36.624;-64.282;2023-05-15T08:42:34;14.10;88.40
59973;DHT22;55298;-36.624;-64.282;2023-05-15T08:45:03;14.10;88.50
59973;DHT22;55298;-36.624;-64.282;2023-05-15T08:47:37;14.10;89.10
59973;DHT22;55298;-36.624;-64.282;2023-05-15T08:50:08;14.00;89.20
59973;DHT22;55298;-36.624;-64.282;2023-05-15T08:52:42;14.00;89.50
59973;DHT22;55298;-36.624;-64.282;2023-05-15T08:55:12;14.00;89.50
59973;DHT22;55298;-36.624;-64.282;2023-05-15T08:57:41;13.90;89.70
59973;DHT22;55298;-36.624;-64.282;2023-05-15T09:00:10;13.90;90.00
59973;DHT22;55298;-36.624;-64.282;2023-05-15T09:02:41;13.80;90.10
59973;DHT22;55298;-36.624;-64.282;2023-05-15T09:05:09;13.80;90.20
59973;DHT22;55298;-36.624;-64.282;2023-05-15T09:07:38;13.80;90.30
59973;DHT22;55298;-36.624;-64.282;2023-05-15T09:10:09;13.80;90.40
59973;DHT22;55298;-36.624;-64.282;2023-05-15T09:12:40;13.70;90.40
59973;DHT22;55298;-36.624;-64.282;2023-05-15T09:15:13;13.70;90.30
59973;DHT22;55298;-36.624;-64.282;2023-05-15T09:17:44;13.70;90.20
59973;DHT22;55298;-36.624;-64.282;2023-05-15T09:20:29;13.60;90.40
59973;DHT22;55298;-36.624;-64.282;2023-05-15T09:23:00;13.60;90.60
59973;DHT22;55298;-36.624;-64.282;2023-05-15T09:25:38;13.50;91.10
59973;DHT22;55298;-36.624;-64.282;2023-05-15T09:28:08;13.50;91.40
59973;DHT22;55298;-36.624;-64.282;2023-05-15T09:30:40;13.40;91.40
59973;DHT22;55298;-36.624;-64.282;2023-05-15T09:33:09;13.40;91.20
59973;DHT22;55298;-36.624;-64.282;2023-05-15T09:35:38;13.40;91.00
59973;DHT22;55298;-36.624;-64.282;2023-05-15T09:38:11;13.40;91.00
59973;DHT22;55298;-36.624;-64.282;2023-05-15T09:40:39;13.30;91.20
59973;DHT22;55298;-36.624;-64.282;2023-05-15T09:43:08;13.30;91.30
59973;DHT22;55298;-36.624;-64.282;2023-05-15T09:45:37;13.30;91.50
59973;DHT22;55298;-36.624;-64.282;2023-05-15T09:48:06;13.30;91.90
59973;DHT22;55298;-36.624;-64.282;2023-05-15T09:50:37;13.30;92.10
59973;DHT22;55298;-36.624;-64.282;2023-05-15T09:53:05;13.30;92.00
59973;DHT22;55298;-36.624;-64.282;2023-05-15T09:55:39;13.30;92.20
59973;DHT22;55298;-36.624;-64.282;2023-05-15T09:58:12;13.20;92.30
59973;DHT22;55298;-36.624;-64.282;2023-05-15T10:00:41;13.20;92.50
59973;DHT22;55298;-36.624;-64.282;2023-05-15T10:03:10;13.10;92.50
59973;DHT22;55298;-36.624;-64.282;2023-05-15T10:05:39;13.10;92.50
59973;DHT22;55298;-36.624;-64.282;2023-05-15T10:08:07;13.00;92.30
59973;DHT22;55298;-36.624;-64.282;2023-05-15T10:10:34;13.00;92.80
59973;DHT22;55298;-36.624;-64.282;2023-05-15T10:13:02;13.00;92.70
59973;DHT22;55298;-36.624;-64.282;2023-05-15T10:15:32;13.00;93.50
59973;DHT22;55298;-36.624;-64.282;2023-05-15T10:18:01;12.90;93.90
59973;DHT22;55298;-36.624;-64.282;2023-05-15T10:20:31;12.80;94.40
59973;DHT22;55298;-36.624;-64.282;2023-05-15T10:23:04;12.80;94.80
59973;DHT22;55298;-36.624;-64.282;2023-05-15T10:25:54;12.70;95.00
59973;DHT22;55298;-36.624;-64.282;2023-05-15T10:28:28;12.70;95.30
59973;DHT22;55298;-36.624;-64.282;2023-05-15T10:30:59;12.70;96.00
59973;DHT22;55298;-36.624;-64.282;2023-05-15T10:33:28;12.70;96.50
59973;DHT22;55298;-36.624;-64.282;2023-05-15T10:35:58;12.60;96.70
59973;DHT22;55298;-36.624;-64.282;2023-05-15T10:38:27;12.70;96.50
59973;DHT22;55298;-36.624;-64.282;2023-05-15T10:40:58;12.70;96.40
59973;DHT22;55298;-36.624;-64.282;2023-05-15T10:43:29;12.70;96.60
59973;DHT22;55298;-36.624;-64.282;2023-05-15T10:45:57;12.70;96.80
59973;DHT22;55298;-36.624;-64.282;2023-05-15T10:48:27;12.60;97.10
59973;DHT22;55298;-36.624;-64.282;2023-05-15T10:50:55;12.60;97.10
59973;DHT22;55298;-36.624;-64.282;2023-05-15T10:53:27;12.60;96.90
59973;DHT22;55298;-36.624;-64.282;2023-05-15T10:55:55;12.50;96.40
59973;DHT22;55298;-36.624;-64.282;2023-05-15T10:58:23;12.60;96.40
59973;DHT22;55298;-36.624;-64.282;2023-05-15T11:00:51;12.50;96.80
59973;DHT22;55298;-36.624;-64.282;2023-05-15T11:03:34;12.40;96.60
59973;DHT22;55298;-36.624;-64.282;2023-05-15T11:06:12;12.40;96.70
59973;DHT22;55298;-36.624;-64.282;2023-05-15T11:08:40;12.40;96.80
59973;DHT22;55298;-36.624;-64.282;2023-05-15T11:14:15;12.30;97.50
59973;DHT22;55298;-36.624;-64.282;2023-05-15T11:16:56;12.30;97.70
59973;DHT22;55298;-36.624;-64.282;2023-05-15T11:19:33;12.20;98.00
59973;DHT22;55298;-36.624;-64.282;2023-05-15T11:25:07;12.20;97.90
59973;DHT22;55298;-36.624;-64.282;2023-05-15T11:27:41;12.20;98.20
59973;DHT22;55298;-36.624;-64.282;2023-05-15T11:30:20;12.40;99.00
59973;DHT22;55298;-36.624;-64.282;2023-05-15T11:32:55;12.30;99.20
59973;DHT22;55298;-36.624;-64.282;2023-05-15T11:35:27;12.30;99.60
59973;DHT22;55298;-36.624;-64.282;2023-05-15T11:38:15;12.40;99.90
59973;DHT22;55298;-36.624;-64.282;2023-05-15T11:40:48;12.40;99.90
59973;DHT22;55298;-36.624;-64.282;2023-05-15T11:43:23;12.90;99.90
59973;DHT22;55298;-36.624;-64.282;2023-05-15T11:45:54;13.50;99.10
59973;DHT22;55298;-36.624;-64.282;2023-05-15T11:48:31;14.10;98.00
59973;DHT22;55298;-36.624;-64.282;2023-05-15T11:51:02;15.00;95.90
59973;DHT22;55298;-36.624;-64.282;2023-05-15T11:53:36;15.50;93.70
59973;DHT22;55298;-36.624;-64.282;2023-05-15T11:56:05;16.00;91.90
59973;DHT22;55298;-36.624;-64.282;2023-05-15T11:58:33;16.40;91.00
59973;DHT22;55298;-36.624;-64.282;2023-05-15T12:01:01;16.70;87.70
59973;DHT22;55298;-36.624;-64.282;2023-05-15T12:03:33;17.20;86.10
59973;DHT22;55298;-36.624;-64.282;2023-05-15T12:06:03;17.50;83.30
59973;DHT22;55298;-36.624;-64.282;2023-05-15T12:08:33;17.70;81.60
59973;DHT22;55298;-36.624;-64.282;2023-05-15T12:11:02;18.00;80.30
59973;DHT22;55298;-36.624;-64.282;2023-05-15T12:13:32;18.30;79.10
59973;DHT22;55298;-36.624;-64.282;2023-05-15T12:16:01;18.40;77.90
59973;DHT22;55298;-36.624;-64.282;2023-05-15T12:18:31;18.50;77.00
59973;DHT22;55298;-36.624;-64.282;2023-05-15T12:21:00;18.60;76.70
59973;DHT22;55298;-36.624;-64.282;2023-05-15T12:23:31;18.70;76.80
59973;DHT22;55298;-36.624;-64.282;2023-05-15T12:26:05;18.60;76.70
59973;DHT22;55298;-36.624;-64.282;2023-05-15T12:28:34;18.40;77.30
59973;DHT22;55298;-36.624;-64.282;2023-05-15T12:31:03;18.10;79.50
59973;DHT22;55298;-36.624;-64.282;2023-05-15T12:33:31;18.40;79.10
59973;DHT22;55298;-36.624;-64.282;2023-05-15T12:36:18;18.70;77.70
59973;DHT22;55298;-36.624;-64.282;2023-05-15T12:38:47;18.80;78.10
59973;DHT22;55298;-36.624;-64.282;2023-05-15T12:41:15;19.20;77.90
59973;DHT22;55298;-36.624;-64.282;2023-05-15T12:43:42;19.90;76.00
59973;DHT22;55298;-36.624;-64.282;2023-05-15T12:46:14;20.50;73.40
59973;DHT22;55298;-36.624;-64.282;2023-05-15T12:48:41;20.70;71.10
59973;DHT22;55298;-36.624;-64.282;2023-05-15T12:51:10;20.90;70.90
59973;DHT22;55298;-36.624;-64.282;2023-05-15T12:53:40;21.00;70.30
59973;DHT22;55298;-36.624;-64.282;2023-05-15T12:56:09;21.10;69.10
59973;DHT22;55298;-36.624;-64.282;2023-05-15T12:58:42;21.60;69.70
59973;DHT22;55298;-36.624;-64.282;2023-05-15T13:01:10;22.10;66.10
59973;DHT22;55298;-36.624;-64.282;2023-05-15T13:03:38;22.20;64.90
59973;DHT22;55298;-36.624;-64.282;2023-05-15T13:06:09;22.20;65.00
59973;DHT22;55298;-36.624;-64.282;2023-05-15T13:08:47;22.60;63.70
59973;DHT22;55298;-36.624;-64.282;2023-05-15T13:11:17;23.20;64.20
59973;DHT22;55298;-36.624;-64.282;2023-05-15T13:13:46;23.90;61.50
59973;DHT22;55298;-36.624;-64.282;2023-05-15T13:16:34;24.30;58.80
59973;DHT22;55298;-36.624;-64.282;2023-05-15T13:19:03;24.40;58.20
59973;DHT22;55298;-36.624;-64.282;2023-05-15T13:21:32;24.50;57.10
59973;DHT22;55298;-36.624;-64.282;2023-05-15T13:24:00;24.60;56.00
59973;DHT22;55298;-36.624;-64.282;2023-05-15T13:26:28;24.80;57.10
59973;DHT22;55298;-36.624;-64.282;2023-05-15T13:28:56;25.20;55.50
59973;DHT22;55298;-36.624;-64.282;2023-05-15T13:31:25;25.60;54.10
59973;DHT22;55298;-36.624;-64.282;2023-05-15T13:33:53;25.60;53.50
59973;DHT22;55298;-36.624;-64.282;2023-05-15T13:36:21;25.50;53.00
59973;DHT22;55298;-36.624;-64.282;2023-05-15T13:38:49;25.30;53.40
59973;DHT22;55298;-36.624;-64.282;2023-05-15T13:41:17;25.10;53.80
59973;DHT22;55298;-36.624;-64.282;2023-05-15T13:43:44;25.10;54.40
59973;DHT22;55298;-36.624;-64.282;2023-05-15T13:46:14;25.10;54.10
59973;DHT22;55298;-36.624;-64.282;2023-05-15T13:48:43;25.10;54.20
59973;DHT22;55298;-36.624;-64.282;2023-05-15T13:51:11;25.10;53.80
59973;DHT22;55298;-36.624;-64.282;2023-05-15T13:53:39;25.20;54.40
59973;DHT22;55298;-36.624;-64.282;2023-05-15T13:56:07;25.50;53.90
59973;DHT22;55298;-36.624;-64.282;2023-05-15T13:58:36;25.70;53.70
59973;DHT22;55298;-36.624;-64.282;2023-05-15T14:01:06;26.10;53.20
59973;DHT22;55298;-36.624;-64.282;2023-05-15T14:03:34;26.10;51.70
59973;DHT22;55298;-36.624;-64.282;2023-05-15T14:06:03;25.70;53.00
59973;DHT22;55298;-36.624;-64.282;2023-05-15T14:08:32;25.40;53.30
59973;DHT22;55298;-36.624;-64.282;2023-05-15T14:11:00;25.40;53.50
59973;DHT22;55298;-36.624;-64.282;2023-05-15T14:13:28;25.70;54.00
59973;DHT22;55298;-36.624;-64.282;2023-05-15T14:15:57;26.30;53.90
59973;DHT22;55298;-36.624;-64.282;2023-05-15T14:18:32;26.60;51.60
59973;DHT22;55298;-36.624;-64.282;2023-05-15T14:21:00;26.80;51.80
59973;DHT22;55298;-36.624;-64.282;2023-05-15T14:23:28;26.70;52.20
59973;DHT22;55298;-36.624;-64.282;2023-05-15T14:25:56;26.70;51.40
59973;DHT22;55298;-36.624;-64.282;2023-05-15T14:28:24;26.90;52.00
59973;DHT22;55298;-36.624;-64.282;2023-05-15T14:30:52;27.20;51.20
59973;DHT22;55298;-36.624;-64.282;2023-05-15T14:33:20;27.50;50.80
59973;DHT22;55298;-36.624;-64.282;2023-05-15T14:35:48;27.70;50.40
59973;DHT22;55298;-36.624;-64.282;2023-05-15T14:38:17;27.90;49.70
59973;DHT22;55298;-36.624;-64.282;2023-05-15T14:40:45;27.90;49.20
59973;DHT22;55298;-36.624;-64.282;2023-05-15T14:43:13;27.80;49.10
59973;DHT22;55298;-36.624;-64.282;2023-05-15T14:45:41;27.80;49.30
59973;DHT22;55298;-36.624;-64.282;2023-05-15T14:48:09;27.70;49.00
59973;DHT22;55298;-36.624;-64.282;2023-05-15T14:50:37;27.50;49.80
59973;DHT22;55298;-36.624;-64.282;2023-05-15T14:53:05;27.20;49.90
59973;DHT22;55298;-36.624;-64.282;2023-05-15T14:55:33;26.80;50.70
59973;DHT22;55298;-36.624;-64.282;2023-05-15T14:58:01;26.20;51.80
59973;DHT22;55298;-36.624;-64.282;2023-05-15T15:00:29;25.70;53.00
59973;DHT22;55298;-36.624;-64.282;2023-05-15T15:02:57;25.20;54.20
59973;DHT22;55298;-36.624;-64.282;2023-05-15T15:05:26;24.80;55.30
59973;DHT22;55298;-36.624;-64.282;2023-05-15T15:08:00;24.50;56.40
59973;DHT22;55298;-36.624;-64.282;2023-05-15T15:10:33;24.30;57.20
59973;DHT22;55298;-36.624;-64.282;2023-05-15T15:13:07;24.10;57.40
59973;DHT22;55298;-36.624;-64.282;2023-05-15T15:15:36;24.10;58.00
59973;DHT22;55298;-36.624;-64.282;2023-05-15T15:18:04;24.00;58.00
59973;DHT22;55298;-36.624;-64.282;2023-05-15T15:20:33;24.00;58.00
59973;DHT22;55298;-36.624;-64.282;2023-05-15T15:23:03;23.90;58.00
59973;DHT22;55298;-36.624;-64.282;2023-05-15T15:25:31;23.90;58.50